createdAt,value
2023-02-27T00:00:06.874Z,13.54
2023-02-27T00:01:06.957Z,13.54
2023-02-27T00:02:07.060Z,13.57
2023-02-27T00:03:07.101Z,13.60
2023-02-27T00:04:07.234Z,13.61
2023-02-27T00:05:07.219Z,13.54
2023-02-27T00:06:07.321Z,13.54
2023-02-27T00:07:07.363Z,13.54
2023-02-27T00:08:07.450Z,13.56
2023-02-27T00:09:07.602Z,13.57
2023-02-27T00:10:07.596Z,13.57
2023-02-27T00:11:07.657Z,13.58
2023-02-27T00:12:07.725Z,13.57
2023-02-27T00:13:07.809Z,13.55
2023-02-27T00:14:07.888Z,13.59
2023-02-27T00:15:07.932Z,13.56
2023-02-27T00:16:08.023Z,13.59
2023-02-27T00:17:08.065Z,13.62
2023-02-27T00:18:08.158Z,13.57
2023-02-27T00:19:08.213Z,13.56
2023-02-27T00:20:08.291Z,13.58
2023-02-27T00:21:08.336Z,13.56
2023-02-27T00:22:08.410Z,13.59
2023-02-27T00:23:08.456Z,13.48
2023-02-27T00:24:08.537Z,13.54
2023-02-27T00:25:08.595Z,13.52
2023-02-27T00:26:08.619Z,13.54
2023-02-27T00:27:08.687Z,13.51
2023-02-27T00:28:08.739Z,13.49
2023-02-27T00:29:08.869Z,13.50
2023-02-27T00:30:08.864Z,13.50
2023-02-27T00:31:09.065Z,13.50
2023-02-27T00:32:09.051Z,13.47
2023-02-27T00:33:09.029Z,13.47
2023-02-27T00:34:09.060Z,13.46
2023-02-27T00:35:09.152Z,13.49
2023-02-27T00:36:09.141Z,13.46
2023-02-27T00:37:09.191Z,13.47
2023-02-27T00:38:09.229Z,13.50
2023-02-27T00:39:09.256Z,13.45
2023-02-27T00:40:09.306Z,13.49
2023-02-27T00:41:09.334Z,13.48
2023-02-27T00:42:09.387Z,13.48
2023-02-27T00:43:09.447Z,13.42
2023-02-27T00:44:09.472Z,13.42
2023-02-27T00:45:09.533Z,13.46
2023-02-27T00:46:09.548Z,13.46
2023-02-27T00:47:09.565Z,13.40
2023-02-27T00:48:09.656Z,13.40
2023-02-27T00:49:09.731Z,13.42
2023-02-27T00:50:09.666Z,13.37
2023-02-27T00:51:09.740Z,13.35
2023-02-27T00:52:09.785Z,13.38
2023-02-27T00:53:09.812Z,13.34
2023-02-27T00:54:09.866Z,13.35
2023-02-27T00:55:09.912Z,13.34
2023-02-27T00:56:09.984Z,13.36
2023-02-27T00:57:09.992Z,13.36
2023-02-27T00:58:10.023Z,13.33
2023-02-27T00:59:10.052Z,13.31
2023-02-27T01:00:10.115Z,13.33
2023-02-27T01:12:10.530Z,13.23
2023-02-27T01:13:11.361Z,13.25
2023-02-27T01:14:10.617Z,13.25
2023-02-27T01:15:10.624Z,13.24
2023-02-27T01:16:10.698Z,13.24
2023-02-27T01:35:11.319Z,13.21
2023-02-27T01:36:11.341Z,13.23
2023-02-27T01:37:11.377Z,13.21
2023-02-27T01:38:11.443Z,13.20
2023-02-27T01:39:11.457Z,13.25
2023-02-27T01:40:11.510Z,13.16
2023-02-27T01:41:11.541Z,13.21
2023-02-27T01:42:13.175Z,13.18
2023-02-27T01:43:11.581Z,13.17
2023-02-27T01:44:11.604Z,13.20
2023-02-27T01:45:11.652Z,13.21
2023-02-27T01:46:11.703Z,13.21
2023-02-27T01:48:11.755Z,13.16
2023-02-27T01:49:11.774Z,13.21
2023-02-27T01:50:11.814Z,13.19
2023-02-27T01:51:11.797Z,13.20
2023-02-27T01:52:11.841Z,13.24
2023-02-27T01:53:11.891Z,13.17
2023-02-27T01:54:11.893Z,13.20
2023-02-27T01:55:11.917Z,13.19
2023-02-27T01:56:11.971Z,13.17
2023-02-27T01:57:11.969Z,13.14
2023-02-27T01:58:11.994Z,13.16
2023-02-27T01:59:12.038Z,13.19
2023-02-27T02:00:12.077Z,13.19
2023-02-27T02:01:12.125Z,13.14
2023-02-27T02:02:12.132Z,13.20
2023-02-27T02:03:12.168Z,13.14
2023-02-27T02:04:12.161Z,13.16
2023-02-27T02:05:12.217Z,13.16
2023-02-27T02:06:12.238Z,13.19
2023-02-27T02:07:12.267Z,13.16
2023-02-27T02:08:12.289Z,13.19
2023-02-27T02:09:12.339Z,13.16
2023-02-27T02:10:12.365Z,13.16
2023-02-27T02:11:12.410Z,13.11
2023-02-27T02:12:12.439Z,13.14
2023-02-27T02:13:12.480Z,13.15
2023-02-27T02:14:12.512Z,13.13
2023-02-27T02:15:12.516Z,13.15
2023-02-27T02:16:12.570Z,13.15
2023-02-27T02:17:12.602Z,13.12
2023-02-27T02:18:12.657Z,13.13
2023-02-27T02:19:12.681Z,13.15
2023-02-27T02:20:12.770Z,13.12
2023-02-27T02:21:12.818Z,13.11
2023-02-27T02:22:12.883Z,13.12
2023-02-27T02:23:12.991Z,13.09
2023-02-27T02:24:13.046Z,13.12
2023-02-27T02:25:13.088Z,13.13
2023-02-27T03:49:16.497Z,13.09
2023-02-27T03:50:16.545Z,13.10
2023-02-27T03:51:16.603Z,13.07
2023-02-27T03:52:16.644Z,13.13
2023-02-27T03:53:16.742Z,13.08
2023-02-27T03:54:16.779Z,13.08
2023-02-27T03:55:16.812Z,13.12
2023-02-27T03:56:16.903Z,13.05
2023-02-27T03:57:16.937Z,13.09
2023-02-27T03:58:16.957Z,13.12
2023-02-27T03:59:16.991Z,13.08
2023-02-27T04:00:17.060Z,13.08
2023-02-27T04:01:17.789Z,13.08
2023-02-27T04:02:17.162Z,13.08
2023-02-27T04:03:17.256Z,13.06
2023-02-27T04:04:17.294Z,13.06
2023-02-27T04:05:17.334Z,13.09
2023-02-27T04:06:17.362Z,13.09
2023-02-27T04:07:17.447Z,13.06
2023-02-27T04:08:17.492Z,13.09
2023-02-27T04:09:17.586Z,13.09
2023-02-27T04:10:17.631Z,13.12
2023-02-27T04:11:17.679Z,13.08
2023-02-27T04:12:17.753Z,13.09
2023-02-27T04:13:17.805Z,13.03
2023-02-27T04:14:17.854Z,13.08
2023-02-27T04:15:17.898Z,13.08
2023-02-27T04:16:17.955Z,13.08
2023-02-27T04:17:17.992Z,13.08
2023-02-27T04:18:18.027Z,13.11
2023-02-27T04:19:18.098Z,13.08
2023-02-27T04:20:18.140Z,13.09
2023-02-27T04:21:18.208Z,13.05
2023-02-27T04:22:18.262Z,13.09
2023-02-27T04:23:18.280Z,13.08
2023-02-27T04:24:18.350Z,13.11
2023-02-27T04:25:18.404Z,13.08
2023-02-27T04:26:18.471Z,13.12
2023-02-27T04:27:18.480Z,13.11
2023-02-27T04:28:18.586Z,13.06
2023-02-27T04:29:18.609Z,13.11
2023-02-27T04:30:18.646Z,13.06
2023-02-27T04:31:18.785Z,13.09
2023-02-27T04:32:18.851Z,13.08
2023-02-27T04:33:18.805Z,13.09
2023-02-27T04:34:18.853Z,13.11
2023-02-27T04:35:18.930Z,13.09
2023-02-27T04:36:18.943Z,13.09
2023-02-27T04:37:18.977Z,13.06
2023-02-27T04:38:19.026Z,13.08
2023-02-27T04:39:19.104Z,13.09
2023-02-27T04:40:19.167Z,13.09
2023-02-27T04:41:19.191Z,13.11
2023-02-27T04:42:19.213Z,13.11
2023-02-27T06:00:29.539Z,13.29
2023-02-27T06:01:22.535Z,13.32
2023-02-27T06:02:22.554Z,13.31
2023-02-27T06:03:22.539Z,13.26
2023-02-27T06:04:22.523Z,13.26
2023-02-27T06:05:22.565Z,13.26
2023-02-27T06:06:22.552Z,13.35
2023-02-27T06:07:22.547Z,13.32
2023-02-27T06:08:22.564Z,13.31
2023-02-27T06:09:22.583Z,13.28
2023-02-27T06:10:22.559Z,13.32
2023-02-27T06:11:22.619Z,13.28
2023-02-27T06:12:22.591Z,13.29
2023-02-27T06:13:22.586Z,13.33
2023-02-27T06:14:22.604Z,13.29
2023-02-27T06:15:22.632Z,13.35
2023-02-27T06:16:22.639Z,13.33
2023-02-27T06:17:22.637Z,13.28
2023-02-27T06:18:22.623Z,13.28
2023-02-27T06:19:22.659Z,13.32
2023-02-27T06:20:22.639Z,13.32
2023-02-27T06:21:22.656Z,13.32
2023-02-27T06:22:22.675Z,13.33
2023-02-27T06:23:22.701Z,13.32
2023-02-27T06:24:22.706Z,13.23
2023-02-27T06:25:22.678Z,13.33
2023-02-27T06:26:22.716Z,13.29
2023-02-27T06:27:22.705Z,13.41
2023-02-27T06:28:22.729Z,13.41
2023-02-27T06:29:22.720Z,13.43
2023-02-27T06:30:22.776Z,13.43
2023-02-27T06:31:22.719Z,13.48
2023-02-27T06:32:22.887Z,13.47
2023-02-27T06:33:22.746Z,13.51
2023-02-27T06:34:22.764Z,13.64
2023-02-27T06:35:22.773Z,13.85
2023-02-27T06:36:22.784Z,13.87
2023-02-27T06:37:22.788Z,14.03
2023-02-27T06:38:22.835Z,14.13
2023-02-27T06:39:22.895Z,14.57
2023-02-27T06:40:22.859Z,14.62
2023-02-27T06:41:22.879Z,14.78
2023-02-27T06:42:22.876Z,15.33
2023-02-27T06:43:22.926Z,15.40
2023-02-27T06:44:22.907Z,15.61
2023-02-27T11:30:49.686Z,23.62
2023-02-27T13:03:40.700Z,18.07
2023-02-27T13:04:40.698Z,17.81
2023-02-27T13:05:40.681Z,17.59
2023-02-27T13:06:40.683Z,17.69
2023-02-27T13:07:40.682Z,17.63
2023-02-27T13:08:40.675Z,18.03
2023-02-27T13:09:40.666Z,18.22
2023-02-27T13:10:40.622Z,17.96
2023-02-27T13:11:40.606Z,17.89
2023-02-27T13:12:40.766Z,17.88
2023-02-27T13:13:40.900Z,18.20
2023-02-27T13:14:40.779Z,18.39
2023-02-27T13:15:40.563Z,18.29
2023-02-27T13:16:40.613Z,18.52
2023-02-27T13:17:40.572Z,18.46
2023-02-27T13:18:40.604Z,18.49
2023-02-27T13:19:40.560Z,18.62
2023-02-27T13:20:40.505Z,18.48
2023-02-27T13:21:40.510Z,18.62
2023-02-27T13:22:40.748Z,18.68
2023-02-27T13:23:40.430Z,18.71
2023-02-27T13:24:40.425Z,18.72
2023-02-27T13:25:40.372Z,18.78
2023-02-27T13:26:40.406Z,18.82
2023-02-27T13:27:40.360Z,18.79
2023-02-27T13:28:40.286Z,18.78
2023-02-27T13:29:40.258Z,18.66
2023-02-27T13:30:40.253Z,18.64
2023-02-27T13:31:40.333Z,18.56
2023-02-27T13:32:44.118Z,18.52
2023-02-27T13:33:40.242Z,18.53
2023-02-27T13:34:40.108Z,18.48
2023-02-27T13:35:40.127Z,18.40
2023-02-27T13:36:40.062Z,18.27
2023-02-27T13:37:40.021Z,18.28
2023-02-27T13:38:39.973Z,18.21
2023-02-27T13:39:39.926Z,18.15
2023-02-27T13:40:39.883Z,18.10
2023-02-27T13:41:39.830Z,18.04
2023-02-27T13:42:39.800Z,18.10
2023-02-27T13:43:51.374Z,17.94
2023-02-27T13:44:40.719Z,17.91
2023-02-27T13:45:39.715Z,17.91
2023-02-27T13:46:39.646Z,17.91
2023-02-27T13:47:39.566Z,17.80
2023-02-27T13:48:39.556Z,17.80
2023-02-27T13:49:39.473Z,17.73
2023-02-27T13:50:39.465Z,17.76
2023-02-27T13:51:39.412Z,17.72
2023-02-27T13:52:39.378Z,17.64
2023-02-27T13:53:39.358Z,17.66
2023-02-27T13:54:39.297Z,17.66
2023-02-27T13:55:39.228Z,17.59
2023-02-27T13:56:39.224Z,17.56
2023-02-27T13:57:39.175Z,17.53
2023-02-27T13:58:39.102Z,17.59
2023-02-27T13:59:39.055Z,17.57
2023-02-27T14:00:39.049Z,17.57
2023-02-27T14:01:39.099Z,17.60
2023-02-27T14:02:46.569Z,17.54
2023-02-27T14:03:39.932Z,17.56
2023-02-27T14:04:38.924Z,17.49
2023-02-27T14:05:38.863Z,17.57
2023-02-27T14:06:38.809Z,17.57
2023-02-27T14:07:38.752Z,17.49
2023-02-27T14:08:38.694Z,17.54
2023-02-27T14:09:38.698Z,17.51
2023-02-27T14:10:38.654Z,17.47
2023-02-27T14:11:38.582Z,17.44
2023-02-27T14:12:45.372Z,17.38
2023-02-27T14:13:39.485Z,17.27
2023-02-27T14:14:38.443Z,17.23
2023-02-27T14:15:38.368Z,17.15
2023-02-27T14:16:38.341Z,17.05
2023-02-27T14:17:38.277Z,16.90
2023-02-27T14:18:38.213Z,16.93
2023-02-27T14:19:38.185Z,17.06
2023-02-27T14:20:38.182Z,17.15
2023-02-27T14:21:38.097Z,17.09
2023-02-27T14:22:38.090Z,17.16
2023-02-27T14:23:38.027Z,17.13
2023-02-27T14:24:37.990Z,17.43
2023-02-27T14:25:37.919Z,17.72
2023-02-27T14:26:37.957Z,18.10
2023-02-27T14:27:37.884Z,18.26
2023-02-27T14:28:37.829Z,18.19
2023-02-27T14:29:37.801Z,18.55
2023-02-27T14:30:37.709Z,18.65
2023-02-27T14:31:37.715Z,18.78
2023-02-27T14:32:37.646Z,18.80
2023-02-27T14:33:40.474Z,19.18
2023-02-27T14:34:37.552Z,19.09
2023-02-27T14:35:37.539Z,19.07
2023-02-27T14:36:37.445Z,19.37
2023-02-27T14:37:37.386Z,19.46
2023-02-27T14:38:37.342Z,19.71
2023-02-27T14:39:37.302Z,19.93
2023-02-27T14:40:37.255Z,19.95
2023-02-27T14:41:37.226Z,19.82
2023-02-27T14:42:37.263Z,19.78
2023-02-27T14:43:37.104Z,19.85
2023-02-27T14:44:37.063Z,19.81
2023-02-27T14:45:37.021Z,19.90
2023-02-27T14:46:37.002Z,19.78
2023-02-27T14:47:36.909Z,20.07
2023-02-27T14:48:36.848Z,20.18
2023-02-27T14:49:36.849Z,20.23
2023-02-27T14:50:36.765Z,20.38
2023-02-27T14:51:36.697Z,20.44
2023-02-27T14:52:36.676Z,20.35
2023-02-27T14:53:36.599Z,20.58
2023-02-27T14:54:36.605Z,20.52
2023-02-27T14:55:36.504Z,20.81
2023-02-27T14:56:36.425Z,20.74
2023-02-27T16:33:34.151Z,19.37
2023-02-27T16:34:44.678Z,19.60
2023-02-27T16:35:35.091Z,19.51
2023-02-27T16:36:34.039Z,19.61
2023-02-27T16:37:34.008Z,19.60
2023-02-27T16:38:33.948Z,19.78
2023-02-27T16:39:33.893Z,19.81
2023-02-27T16:40:33.982Z,19.96
2023-02-27T16:41:33.895Z,20.02
2023-02-27T16:42:33.780Z,20.06
2023-02-27T16:43:33.830Z,20.06
2023-02-27T16:44:33.678Z,20.23
2023-02-27T16:45:33.670Z,20.40
2023-02-27T16:46:33.580Z,20.45
2023-02-27T16:47:33.534Z,20.41
2023-02-27T16:48:33.508Z,20.59
2023-02-27T16:49:33.737Z,20.65
2023-02-27T16:50:33.491Z,20.74
2023-02-27T16:51:33.484Z,20.78
2023-02-27T16:52:33.455Z,20.68
2023-02-27T16:53:33.487Z,20.77
2023-02-27T16:54:33.487Z,20.90
2023-02-27T16:55:33.904Z,20.99
2023-02-27T16:56:38.420Z,21.01
2023-02-27T16:57:34.415Z,21.17
2023-02-27T16:58:33.756Z,21.13
2023-02-27T16:59:33.308Z,21.04
2023-02-27T17:00:33.306Z,20.70
2023-02-27T17:03:33.179Z,19.28
2023-02-27T17:04:33.149Z,18.72
2023-02-27T17:05:33.073Z,18.61
2023-02-27T17:06:33.039Z,18.72
2023-02-27T17:07:32.990Z,18.89
2023-02-27T17:08:33.038Z,19.06
2023-02-27T17:09:32.921Z,18.97
2023-02-27T17:10:32.867Z,19.00
2023-02-27T17:11:32.838Z,19.01
2023-02-27T17:12:32.812Z,19.07
2023-02-27T17:13:32.806Z,19.02
2023-02-27T17:14:32.752Z,19.14
2023-02-27T17:15:32.769Z,19.13
2023-02-27T17:16:32.804Z,19.20
2023-02-27T17:17:32.712Z,19.18
2023-02-27T17:18:32.743Z,19.17
2023-02-27T17:19:32.654Z,19.13
2023-02-27T17:20:32.643Z,19.17
2023-02-27T17:21:32.623Z,19.13
2023-02-27T17:22:32.603Z,19.15
2023-02-27T17:23:32.597Z,19.11
2023-02-27T17:24:32.574Z,19.20
2023-02-27T17:25:32.548Z,19.11
2023-02-27T17:26:32.527Z,19.05
2023-02-27T17:27:32.534Z,19.09
2023-02-27T17:28:32.498Z,19.07
2023-02-27T17:29:32.481Z,19.09
2023-02-27T17:30:32.494Z,19.05
2023-02-27T17:31:32.431Z,19.09
2023-02-27T17:32:32.390Z,19.19
2023-02-27T17:33:32.407Z,19.02
2023-02-27T17:34:32.368Z,19.12
2023-02-27T17:35:32.371Z,19.15
2023-02-27T17:36:32.335Z,19.16
2023-02-27T17:37:32.362Z,19.06
2023-02-27T17:38:32.348Z,19.10
2023-02-27T17:39:32.356Z,19.13
2023-02-27T17:40:32.318Z,19.15
2023-02-27T17:41:32.331Z,19.19
2023-02-27T17:42:32.340Z,19.18
2023-02-27T17:43:32.310Z,19.19
2023-02-27T17:44:32.328Z,19.05
2023-02-27T17:45:32.299Z,18.75
2023-02-27T17:46:32.865Z,18.59
2023-02-27T17:47:32.309Z,18.58
2023-02-27T17:48:32.353Z,18.61
2023-02-27T17:49:32.295Z,18.60
2023-02-27T18:38:31.782Z,17.22
2023-02-27T18:39:31.771Z,17.13
2023-02-27T18:40:31.775Z,17.15
2023-02-27T18:41:31.750Z,17.15
2023-02-27T18:42:31.706Z,17.10
2023-02-27T18:43:31.829Z,17.06
2023-02-27T18:44:31.712Z,17.04
2023-02-27T18:45:31.714Z,17.06
2023-02-27T18:46:32.151Z,17.04
2023-02-27T18:47:31.670Z,17.07
2023-02-27T18:48:31.674Z,17.03
2023-02-27T18:49:31.674Z,17.02
2023-02-27T18:50:31.732Z,17.02
2023-02-27T18:51:31.644Z,17.07
2023-02-27T18:52:31.646Z,17.00
2023-02-27T18:53:31.660Z,16.95
2023-02-27T18:54:31.626Z,17.00
2023-02-27T18:55:31.643Z,16.95
2023-02-27T18:56:31.942Z,16.99
2023-02-27T18:57:31.608Z,16.93
2023-02-27T18:58:31.625Z,16.89
2023-02-27T18:59:31.633Z,16.90
2023-02-27T19:00:31.604Z,16.86
2023-02-27T19:01:31.626Z,16.92
2023-02-27T19:02:31.687Z,16.85
2023-02-27T19:03:31.715Z,16.87
2023-02-27T19:04:31.567Z,16.83
2023-02-27T19:05:31.561Z,16.85
2023-02-27T19:06:31.538Z,16.77
2023-02-27T19:07:31.520Z,16.79
2023-02-27T19:08:31.522Z,16.76
2023-02-27T19:09:31.509Z,16.82
2023-02-27T19:10:31.562Z,16.72
2023-02-27T19:11:31.525Z,16.76
2023-02-27T19:12:31.500Z,16.76
2023-02-27T19:13:31.505Z,16.73
2023-02-27T19:14:31.534Z,16.71
2023-02-27T19:15:31.588Z,16.69
2023-02-27T19:16:31.933Z,16.68
2023-02-27T19:17:31.510Z,16.66
2023-02-27T19:18:31.526Z,16.68
2023-02-27T19:19:31.535Z,16.68
2023-02-27T19:20:31.534Z,16.60
2023-02-27T19:21:31.540Z,16.59
2023-02-27T19:22:31.540Z,16.62
2023-02-27T19:23:31.506Z,16.56
2023-02-27T19:24:31.506Z,16.49
2023-02-27T19:25:31.524Z,16.56
2023-02-27T19:26:31.773Z,16.53
2023-02-27T19:27:31.531Z,16.56
2023-02-27T19:28:31.550Z,16.52
2023-02-27T19:29:31.543Z,16.53
2023-02-27T19:30:31.517Z,16.53
2023-02-27T19:31:31.758Z,16.47
2023-02-27T19:32:31.561Z,16.42
2023-02-27T19:33:31.535Z,16.46
2023-02-27T19:34:31.558Z,16.52
2023-02-27T19:35:31.580Z,16.40
2023-02-27T19:36:31.680Z,16.46
2023-02-27T19:37:31.550Z,16.47
2023-02-27T19:38:31.571Z,16.42
2023-02-27T19:39:31.577Z,16.42
2023-02-27T19:40:31.577Z,16.44
2023-02-27T19:41:33.430Z,16.36
2023-02-27T19:42:31.561Z,16.39
2023-02-27T19:43:31.558Z,16.36
2023-02-27T19:44:31.560Z,16.29
2023-02-27T19:45:31.572Z,16.32
2023-02-27T19:46:32.028Z,16.32
2023-02-27T19:47:31.592Z,16.37
2023-02-27T19:48:31.583Z,16.30
2023-02-27T19:49:31.571Z,16.27
2023-02-27T19:50:31.564Z,16.32
2023-02-27T19:51:31.555Z,16.30
2023-02-27T19:52:31.596Z,16.29
2023-02-27T19:53:31.593Z,16.26
2023-02-27T19:54:31.564Z,16.22
2023-02-27T19:55:31.555Z,16.25
2023-02-27T19:56:31.928Z,16.15
2023-02-27T19:57:31.580Z,16.25
2023-02-27T19:58:31.582Z,16.25
2023-02-27T19:59:31.607Z,16.23
2023-02-27T20:00:31.606Z,16.23
2023-02-27T20:01:31.594Z,16.23
2023-02-27T20:02:31.574Z,16.26
2023-02-27T20:03:31.624Z,16.20
2023-02-27T20:04:31.591Z,16.16
2023-02-27T20:05:31.590Z,16.17
2023-02-27T20:06:31.757Z,16.19
2023-02-27T20:07:31.581Z,16.13
2023-02-27T20:08:31.578Z,16.12
2023-02-27T20:09:31.585Z,16.13
2023-02-27T20:10:31.611Z,16.13
2023-02-27T20:11:31.600Z,16.11
2023-02-27T20:12:31.606Z,16.10
2023-02-27T20:13:31.636Z,16.16
2023-02-27T20:14:31.630Z,16.15
2023-02-27T20:15:31.629Z,16.10
2023-02-27T20:16:31.956Z,16.06
2023-02-27T20:17:31.602Z,16.06
2023-02-27T20:18:31.627Z,16.05
2023-02-27T20:19:31.616Z,16.04
2023-02-27T20:20:32.111Z,16.03
2023-02-27T20:21:32.012Z,16.05
2023-02-27T20:22:31.615Z,16.06
2023-02-27T20:23:31.653Z,16.09
2023-02-27T20:24:31.637Z,15.96
2023-02-27T20:25:31.602Z,16.05
2023-02-27T20:26:31.778Z,16.00
2023-02-27T20:27:31.622Z,16.01
2023-02-27T20:28:31.598Z,15.94
2023-02-27T20:29:31.610Z,15.99
2023-02-27T20:30:31.632Z,16.00
2023-02-27T20:31:32.013Z,15.96
2023-02-27T20:32:31.846Z,15.93
2023-02-27T20:33:31.658Z,15.96
2023-02-27T20:34:31.641Z,15.90
2023-02-27T20:35:31.656Z,15.94
2023-02-27T20:36:31.642Z,15.92
2023-02-27T20:37:31.638Z,15.93
2023-02-27T20:38:31.647Z,15.87
2023-02-27T20:39:31.663Z,15.89
2023-02-27T20:40:31.646Z,15.92
2023-02-27T20:41:31.902Z,15.87
2023-02-27T20:42:31.636Z,15.86
2023-02-27T20:43:31.645Z,15.88
2023-02-27T20:44:31.656Z,15.82
2023-02-27T20:45:31.667Z,15.87
2023-02-27T20:46:31.652Z,15.83
2023-02-27T20:47:31.652Z,15.82
2023-02-27T20:48:31.658Z,15.79
2023-02-27T20:49:31.656Z,15.80
2023-02-27T20:50:31.687Z,15.83
2023-02-27T20:51:31.899Z,15.79
2023-02-27T20:52:31.669Z,15.82
2023-02-27T20:53:31.689Z,15.74
2023-02-27T20:54:31.681Z,15.79
2023-02-27T20:55:31.664Z,15.79
2023-02-27T20:56:31.701Z,15.79
2023-02-27T20:57:31.681Z,15.80
2023-02-27T20:58:31.686Z,15.70
2023-02-27T20:59:31.694Z,15.70
2023-02-27T21:00:31.697Z,15.73
2023-02-27T21:01:32.256Z,15.70
2023-02-27T21:02:31.653Z,15.69
2023-02-27T21:03:38.543Z,15.65
2023-02-27T21:04:32.821Z,15.70
2023-02-27T21:05:31.594Z,15.76
2023-02-27T21:06:31.587Z,15.72
2023-02-27T21:07:31.566Z,15.67
2023-02-27T21:08:31.549Z,15.67
2023-02-27T21:09:31.502Z,15.67
2023-02-27T21:10:31.484Z,15.70
2023-02-27T21:11:31.737Z,15.62
2023-02-27T21:12:31.399Z,15.60
2023-02-27T21:13:31.423Z,15.63
2023-02-27T21:14:31.352Z,15.59
2023-02-27T21:15:31.333Z,15.60
2023-02-27T21:17:31.275Z,15.65
2023-02-27T21:18:31.260Z,15.66
2023-02-27T21:19:31.257Z,15.62
2023-02-27T21:20:31.230Z,15.60
2023-02-27T21:21:31.570Z,15.53
2023-02-27T21:22:31.232Z,15.59
2023-02-27T21:23:31.240Z,15.56
2023-02-27T21:24:31.210Z,15.59
2023-02-27T21:25:31.223Z,15.55
2023-02-27T21:26:33.275Z,15.55
2023-02-27T21:27:31.207Z,15.57
2023-02-27T21:28:31.195Z,15.57
2023-02-27T21:29:31.137Z,15.57
2023-02-27T21:30:31.124Z,15.53
2023-02-27T21:31:31.622Z,15.49
2023-02-27T21:32:31.046Z,15.50
2023-02-27T21:33:31.027Z,15.53
2023-02-27T21:34:31.017Z,15.54
2023-02-27T21:35:31.068Z,15.50
2023-02-27T21:36:30.956Z,15.52
2023-02-27T21:37:30.906Z,15.49
2023-02-27T21:38:30.930Z,15.49
2023-02-27T21:39:30.861Z,15.47
2023-02-27T21:40:30.807Z,15.52
2023-02-27T21:41:31.110Z,15.49
2023-02-27T21:42:30.743Z,15.52
2023-02-27T21:43:30.740Z,15.47
2023-02-27T21:44:30.679Z,15.47
2023-02-27T21:45:30.675Z,15.49
2023-02-27T21:46:30.627Z,15.45
2023-02-27T21:47:30.693Z,15.47
2023-02-27T21:48:30.590Z,15.45
2023-02-27T21:49:30.540Z,15.45
2023-02-27T21:50:30.502Z,15.45
2023-02-27T21:51:39.910Z,15.52
2023-02-27T21:52:31.492Z,15.45
2023-02-27T21:53:30.431Z,15.43
2023-02-27T21:54:30.404Z,15.42
2023-02-27T21:55:30.384Z,15.45
2023-02-27T21:56:30.523Z,15.45
2023-02-27T21:57:30.315Z,15.46
2023-02-27T21:58:30.283Z,15.40
2023-02-27T21:59:30.251Z,15.36
2023-02-27T23:12:30.294Z,14.93
2023-02-27T23:13:30.265Z,14.96
2023-02-27T23:14:30.285Z,14.92
2023-02-27T23:15:30.306Z,14.90
2023-02-27T23:16:30.329Z,14.92
2023-02-27T23:17:30.316Z,14.93
2023-02-27T23:18:30.361Z,14.95
2023-02-27T23:19:30.369Z,14.87
2023-02-27T23:20:30.326Z,14.96
2023-02-27T23:21:30.820Z,14.92
2023-02-27T23:22:30.372Z,14.93
2023-02-27T23:23:30.385Z,14.89
2023-02-27T23:24:30.385Z,14.90
2023-02-27T23:25:30.396Z,14.89
2023-02-27T23:26:30.425Z,14.86
2023-02-27T23:27:30.440Z,14.85
2023-02-27T23:28:30.440Z,14.83
